Time;durP1;ratioP1;P1;durP2;ratioP2;P2;SDS_P1;SDS_P2;PMS_P1;PMS_P2;Temp;Humidity;BMP_temperature;BMP_pressure;BME280_temperature;BME280_humidity;BME280_pressure;Samples;Min_cycle;Max_cycle;Signal;HPM_P1;HPM_P2
2023/06/09 02:15:46;;;;;;;;;;;;;;;21.39;67.65;99465.00;5304938;26;19980;-80
2023/06/09 02:18:15;;;;;;;;;;;;;;;21.26;68.49;99467.94;5296915;27;32798;-80
2023/06/09 02:20:42;;;;;;;;;;;;;;;21.20;68.87;99466.66;5282787;27;36183;-81
2023/06/09 02:23:14;;;;;;;;;;;;;;;21.32;68.33;99471.94;5320088;27;33943;-81
2023/06/09 02:25:41;;;;;;;;;;;;;;;21.16;68.32;99475.16;5320171;27;33138;-82
2023/06/09 02:28:10;;;;;;;;;;;;;;;21.31;67.81;99475.59;5320143;27;32642;-81
2023/06/09 02:30:37;;;;;;;;;;;;;;;21.34;67.51;99478.00;5301824;27;32931;-82
2023/06/09 02:33:05;;;;;;;;;;;;;;;21.57;66.40;99479.38;5283997;27;34289;-81
2023/06/09 02:35:33;;;;;;;;;;;;;;;21.37;67.35;99483.09;5302105;27;34445;-81
2023/06/09 02:38:04;;;;;;;;;;;;;;;21.34;67.68;99486.06;5284242;27;31985;-82
2023/06/09 02:40:32;;;;;;;;;;;;;;;21.40;67.54;99489.00;5320312;27;33810;-81
2023/06/09 02:43:00;;;;;;;;;;;;;;;21.35;67.56;99477.84;5321853;27;35019;-81
2023/06/09 02:45:27;;;;;;;;;;;;;;;21.12;68.92;99493.38;5301875;27;32943;-81
2023/06/09 02:47:56;;;;;;;;;;;;;;;21.16;68.18;99486.75;5301723;27;32554;-81
2023/06/09 02:50:24;;;;;;;;;;;;;;;21.28;68.13;99479.41;5302303;27;32553;-81
2023/06/09 02:52:52;;;;;;;;;;;;;;;21.23;68.28;99477.13;5283699;27;34374;-81
2023/06/09 02:55:20;;;;;;;;;;;;;;;21.14;68.54;99479.84;5283752;27;35509;-81
2023/06/09 02:57:48;;;;;;;;;;;;;;;21.36;67.57;99474.16;5302077;27;32230;-81
2023/06/09 03:00:16;;;;;;;;;;;;;;;21.45;66.74;99480.50;5302260;27;34124;-81
2023/06/09 03:02:46;;;;;;;;;;;;;;;21.37;67.14;99485.78;5320354;27;33912;-81
2023/06/09 03:05:14;;;;;;;;;;;;;;;21.28;67.33;99483.91;5302462;27;34670;-81
2023/06/09 03:07:41;;;;;;;;;;;;;;;21.28;67.62;99476.72;5320436;27;33442;-81
2023/06/09 03:10:09;;;;;;;;;;;;;;;21.27;67.80;99476.84;5283492;27;33326;-81
2023/06/09 03:12:38;;;;;;;;;;;;;;;21.21;68.05;99473.72;5265878;27;33425;-81
2023/06/09 03:15:06;;;;;;;;;;;;;;;21.35;67.47;99468.94;5301639;27;34900;-81
2023/06/09 03:17:34;;;;;;;;;;;;;;;21.37;67.52;99467.81;5301163;27;33345;-81
2023/06/09 03:20:05;;;;;;;;;;;;;;;21.38;66.98;99463.28;5301858;27;32747;-81
2023/06/09 03:22:33;;;;;;;;;;;;;;;21.35;67.00;99461.72;5302153;27;33146;-80
2023/06/09 03:25:01;;;;;;;;;;;;;;;21.38;66.60;99466.81;5301627;27;34285;-81
2023/06/09 03:27:30;;;;;;;;;;;;;;;21.26;67.43;99461.72;5320079;27;32742;-81
2023/06/09 03:29:57;;;;;;;;;;;;;;;21.18;67.79;99467.81;5284441;27;32814;-80
2023/06/09 03:32:25;;;;;;;;;;;;;;;21.40;66.82;99462.16;5302566;27;32677;-80
2023/06/09 03:34:53;;;;;;;;;;;;;;;21.42;66.78;99470.94;5302615;27;35053;-80
2023/06/09 03:37:21;;;;;;;;;;;;;;;21.28;67.72;99473.19;5284654;27;32773;-80
2023/06/09 03:39:49;;;;;;;;;;;;;;;21.27;68.12;99472.34;5302609;27;34261;-81
2023/06/09 03:42:16;;;;;;;;;;;;;;;21.33;67.97;99468.25;5284267;27;34027;-81
2023/06/09 03:44:44;;;;;;;;;;;;;;;21.33;68.08;99470.94;5302545;27;33655;-80
2023/06/09 03:47:14;;;;;;;;;;;;;;;21.33;67.97;99474.47;5302502;27;33204;-80
2023/06/09 03:49:41;;;;;;;;;;;;;;;21.35;68.14;99468.94;5284539;27;33207;-80
2023/06/09 03:52:09;;;;;;;;;;;;;;;21.40;67.86;99474.72;5302514;27;34358;-80
2023/06/09 03:54:37;;;;;;;;;;;;;;;21.35;68.54;99468.94;5284577;27;33778;-80
2023/06/09 03:57:06;;;;;;;;;;;;;;;21.43;68.36;99472.63;5284533;27;32276;-80
2023/06/09 03:59:34;;;;;;;;;;;;;;;21.46;68.11;99466.13;5320518;27;34195;-81
2023/06/09 04:02:02;;;;;;;;;;;;;;;21.41;68.42;99479.97;5302284;27;35016;-81
2023/06/09 04:04:29;;;;;;;;;;;;;;;21.47;68.23;99478.56;5302236;27;32898;-81
2023/06/09 04:06:59;;;;;;;;;;;;;;;21.41;68.28;99479.09;5283944;27;32064;-81
2023/06/09 04:09:27;;;;;;;;;;;;;;;21.53;67.95;99477.97;5302454;27;33685;-81
2023/06/09 04:11:54;;;;;;;;;;;;;;;21.57;67.36;99487.44;5302812;27;35086;-81
2023/06/09 04:14:23;;;;;;;;;;;;;;;21.53;67.36;99488.72;5303066;27;34132;-81
2023/06/09 04:16:51;;;;;;;;;;;;;;;21.51;67.39;99485.34;5302511;27;33015;-81
2023/06/09 04:19:19;;;;;;;;;;;;;;;21.40;67.70;99494.38;5320734;27;33669;-80
2023/06/09 04:21:47;;;;;;;;;;;;;;;21.54;67.11;99485.03;5283861;27;33167;-81
2023/06/09 04:24:15;;;;;;;;;;;;;;;21.27;68.41;99483.06;5302502;27;34092;-80
2023/06/09 04:26:44;;;;;;;;;;;;;;;21.34;67.95;99494.12;5302871;27;33106;-81
2023/06/09 04:29:12;;;;;;;;;;;;;;;21.47;67.61;99495.50;5302482;27;34035;-81
2023/06/09 04:31:42;;;;;;;;;;;;;;;21.35;68.05;99493.97;5302385;27;34123;-81
2023/06/09 04:34:12;;;;;;;;;;;;;;;21.35;68.18;99501.19;5303014;27;34160;-81
2023/06/09 04:36:40;;;;;;;;;;;;;;;21.46;68.05;99501.03;5302880;27;34161;-80
2023/06/09 04:39:09;;;;;;;;;;;;;;;21.49;67.74;99503.41;5284114;27;33079;-81
2023/06/09 04:41:37;;;;;;;;;;;;;;;21.65;66.68;99509.06;5301649;27;34745;-81
2023/06/09 04:44:05;;;;;;;;;;;;;;;21.53;67.40;99514.72;5302173;27;34869;-81
2023/06/09 04:46:41;;;;;;;;;;;;;;;21.46;67.80;99520.69;5303213;27;32868;-80
2023/06/09 04:49:09;;;;;;;;;;;;;;;21.60;67.12;99516.72;5303917;27;34894;-80
2023/06/09 04:51:48;;;;;;;;;;;;;;;21.51;67.54;99519.38;5300442;27;33740;-80
2023/06/09 04:54:18;;;;;;;;;;;;;;;21.51;67.50;99520.25;5301146;27;34899;-80
2023/06/09 04:56:52;;;;;;;;;;;;;;;21.53;67.51;99522.78;5281408;27;32149;-80
2023/06/09 04:59:20;;;;;;;;;;;;;;;21.36;68.62;99532.41;5318130;27;33887;-81
2023/06/09 05:01:48;;;;;;;;;;;;;;;21.55;68.07;99534.22;5280648;27;34080;-81
2023/06/09 05:04:16;;;;;;;;;;;;;;;21.64;67.49;99534.22;5299310;27;33917;-81
2023/06/09 05:06:45;;;;;;;;;;;;;;;21.75;66.94;99535.91;5281823;27;33483;-81
2023/06/09 05:09:12;;;;;;;;;;;;;;;21.66;66.98;99536.78;5319018;27;33687;-81
2023/06/09 05:11:40;;;;;;;;;;;;;;;21.56;67.92;99542.16;5281592;27;33623;-82
2023/06/09 05:14:09;;;;;;;;;;;;;;;21.58;67.81;99534.78;5281299;27;33532;-82
2023/06/09 05:16:37;;;;;;;;;;;;;;;21.52;68.31;99538.06;5317662;27;32877;-82
2023/06/09 05:19:06;;;;;;;;;;;;;;;21.58;68.24;99553.59;5317348;27;34063;-82
2023/06/09 05:21:34;;;;;;;;;;;;;;;21.59;68.10;99541.00;5299499;27;35112;-81
2023/06/09 05:24:02;;;;;;;;;;;;;;;21.54;68.22;99533.38;5299016;27;32932;-82
2023/06/09 05:26:30;;;;;;;;;;;;;;;21.65;67.83;99535.09;5298978;27;33328;-80
2023/06/09 05:28:58;;;;;;;;;;;;;;;21.71;67.17;99535.34;5316123;27;34884;-81
2023/06/09 05:31:26;;;;;;;;;;;;;;;21.61;67.69;99533.66;5280981;27;33100;-80
2023/06/09 05:33:53;;;;;;;;;;;;;;;21.60;67.86;99540.00;5298577;27;34221;-81
2023/06/09 05:36:23;;;;;;;;;;;;;;;21.69;67.79;99542.69;5298753;27;32005;-81
2023/06/09 05:38:50;;;;;;;;;;;;;;;21.77;67.58;99539.28;5280826;27;32758;-81
2023/06/09 05:41:18;;;;;;;;;;;;;;;21.87;67.13;99539.25;5298668;27;34797;-81
2023/06/09 05:43:45;;;;;;;;;;;;;;;21.97;66.54;99538.22;5280551;27;33538;-81
2023/06/09 05:46:14;;;;;;;;;;;;;;;21.82;67.16;99530.78;5316876;27;33487;-81
2023/06/09 05:48:41;;;;;;;;;;;;;;;21.81;67.60;99531.78;5298563;27;34471;-81
2023/06/09 05:51:09;;;;;;;;;;;;;;;21.82;67.63;99528.09;5298292;27;34575;-80
2023/06/09 05:53:38;;;;;;;;;;;;;;;21.98;66.99;99526.50;5297984;27;34576;-81
2023/06/09 05:56:06;;;;;;;;;;;;;;;21.96;67.16;99516.88;5317404;27;34307;-81
2023/06/09 05:58:34;;;;;;;;;;;;;;;21.86;67.83;99542.94;5316679;27;34886;-80
2023/06/09 06:01:03;;;;;;;;;;;;;;;21.88;67.87;99546.31;5317803;27;34344;-80
2023/06/09 06:03:32;;;;;;;;;;;;;;;21.79;67.88;99547.19;5281479;27;33090;-80
2023/06/09 06:06:00;;;;;;;;;;;;;;;21.80;67.85;99539.00;5316324;27;33087;-80
2023/06/09 06:08:28;;;;;;;;;;;;;;;21.87;67.58;99534.72;5298564;27;33904;-80
2023/06/09 06:10:55;;;;;;;;;;;;;;;21.94;67.43;99526.94;5280478;27;33183;-81
2023/06/09 06:13:23;;;;;;;;;;;;;;;22.03;67.22;99547.59;5261770;27;33038;-80
2023/06/09 06:15:50;;;;;;;;;;;;;;;22.07;66.84;99527.44;5298106;27;34062;-80
2023/06/09 06:18:18;;;;;;;;;;;;;;;22.05;67.18;99529.44;5279949;27;33107;-80
2023/06/09 06:20:45;;;;;;;;;;;;;;;22.01;67.77;99533.41;5298334;27;32676;-80
2023/06/09 06:23:13;;;;;;;;;;;;;;;21.94;67.92;99537.69;5279437;27;33097;-80
2023/06/09 06:25:43;;;;;;;;;;;;;;;22.33;66.25;99549.19;5317104;27;33243;-80
2023/06/09 06:28:11;;;;;;;;;;;;;;;22.15;67.20;99557.19;5317273;27;33955;-80
2023/06/09 06:30:38;;;;;;;;;;;;;;;22.15;67.62;99556.34;5298172;27;33584;-80
2023/06/09 06:33:06;;;;;;;;;;;;;;;22.03;67.83;99563.72;5317294;27;33718;-80
2023/06/09 06:35:34;;;;;;;;;;;;;;;22.21;67.60;99548.50;5315798;27;32993;-80
2023/06/09 06:38:01;;;;;;;;;;;;;;;22.32;67.44;99547.50;5298797;27;34561;-80
2023/06/09 06:40:29;;;;;;;;;;;;;;;22.50;66.46;99547.53;5298648;27;34668;-80
2023/06/09 06:42:56;;;;;;;;;;;;;;;22.48;66.69;99552.22;5298601;27;33893;-80
2023/06/09 06:45:29;;;;;;;;;;;;;;;22.53;66.32;99549.09;5317245;27;33141;-80
2023/06/09 06:47:56;;;;;;;;;;;;;;;22.65;65.87;99556.81;5316608;27;32921;-80
2023/06/09 06:50:27;;;;;;;;;;;;;;;22.59;66.28;99570.00;5317193;27;34022;-80
2023/06/09 06:52:54;;;;;;;;;;;;;;;22.60;66.35;99569.88;5297449;27;34968;-82
2023/06/09 06:55:22;;;;;;;;;;;;;;;22.65;66.07;99572.97;5280718;27;32740;-81
2023/06/09 06:57:49;;;;;;;;;;;;;;;22.48;66.65;99571.91;5297454;27;32911;-80
2023/06/09 07:00:17;;;;;;;;;;;;;;;22.52;67.15;99577.00;5297970;27;34720;-80
2023/06/09 07:02:46;;;;;;;;;;;;;;;22.55;67.11;99572.19;5298364;27;34287;-80
2023/06/09 07:05:15;;;;;;;;;;;;;;;22.44;67.04;99569.66;5316494;27;33158;-80
2023/06/09 07:07:46;;;;;;;;;;;;;;;22.27;67.86;99571.31;5316743;27;33819;-80
2023/06/09 07:10:15;;;;;;;;;;;;;;;22.23;67.22;99573.44;5316585;27;33644;-80
2023/06/09 07:12:42;;;;;;;;;;;;;;;22.39;66.56;99571.94;5298505;27;33839;-80
2023/06/09 07:15:10;;;;;;;;;;;;;;;22.31;67.27;99567.31;5297870;27;32328;-80
2023/06/09 07:17:38;;;;;;;;;;;;;;;22.22;68.49;99570.91;5280211;27;34087;-80
2023/06/09 07:20:06;;;;;;;;;;;;;;;22.22;68.47;99570.91;5297747;27;33494;-80
2023/06/09 07:22:33;;;;;;;;;;;;;;;22.24;67.28;99569.75;5298139;27;33327;-80
2023/06/09 07:25:01;;;;;;;;;;;;;;;22.21;67.00;99572.72;5316447;27;33877;-81
2023/06/09 07:27:29;;;;;;;;;;;;;;;22.08;67.85;99577.56;5297499;27;33646;-80
2023/06/09 07:29:57;;;;;;;;;;;;;;;22.19;68.02;99577.41;5298123;27;33781;-80
2023/06/09 07:32:25;;;;;;;;;;;;;;;22.21;67.55;99569.19;5297335;27;34781;-81
2023/06/09 07:34:53;;;;;;;;;;;;;;;22.21;67.70;99578.09;5298878;27;34702;-80
2023/06/09 07:37:22;;;;;;;;;;;;;;;22.10;69.45;99574.72;5316593;27;34335;-81
2023/06/09 07:39:49;;;;;;;;;;;;;;;22.45;67.72;99569.50;5279651;27;33325;-80
2023/06/09 07:42:22;;;;;;;;;;;;;;;22.38;66.83;99567.56;5298632;27;33499;-81
2023/06/09 07:44:50;;;;;;;;;;;;;;;22.07;67.34;99573.16;5316578;27;33195;-81
2023/06/09 07:47:18;;;;;;;;;;;;;;;22.24;67.22;99555.44;5298093;27;33773;-81
2023/06/09 07:49:45;;;;;;;;;;;;;;;22.34;66.94;99563.47;5297524;27;34620;-81
2023/06/09 07:52:13;;;;;;;;;;;;;;;22.45;65.79;99560.59;5298115;27;34092;-81
2023/06/09 07:54:50;;;;;;;;;;;;;;;22.44;64.13;99566.97;5283544;27;32504;-80
2023/06/09 07:57:18;;;;;;;;;;;;;;;22.32;64.09;99555.56;5318284;27;34154;-81
2023/06/09 07:59:46;;;;;;;;;;;;;;;22.01;64.31;99554.94;5315742;27;34309;-81
2023/06/09 08:02:13;;;;;;;;;;;;;;;21.79;64.92;99557.94;5279475;27;32689;-81
2023/06/09 08:04:41;;;;;;;;;;;;;;;21.94;65.31;99551.13;5298253;27;32688;-81
2023/06/09 08:07:09;;;;;;;;;;;;;;;22.04;64.80;99557.34;5298046;27;33017;-81
2023/06/09 08:09:37;;;;;;;;;;;;;;;22.14;64.22;99552.78;5316537;27;34727;-81
2023/06/09 08:12:06;;;;;;;;;;;;;;;22.07;64.75;99556.19;5280273;27;34138;-81
2023/06/09 08:14:33;;;;;;;;;;;;;;;21.94;65.51;99545.75;5280087;27;31817;-81
2023/06/09 08:17:01;;;;;;;;;;;;;;;21.96;65.71;99554.53;5298837;27;33341;-81
2023/06/09 08:19:29;;;;;;;;;;;;;;;22.04;65.74;99551.13;5281480;27;32947;-81
2023/06/09 08:21:57;;;;;;;;;;;;;;;22.10;65.84;99548.69;5316693;27;33730;-81
2023/06/09 08:24:25;;;;;;;;;;;;;;;22.23;65.80;99541.16;5299406;27;33045;-81
2023/06/09 08:26:54;;;;;;;;;;;;;;;22.13;66.31;99544.88;5280269;27;33628;-81
2023/06/09 08:29:22;;;;;;;;;;;;;;;22.32;65.83;99546.66;5280845;27;33055;-81
2023/06/09 08:31:49;;;;;;;;;;;;;;;22.42;65.79;99558.22;5298836;27;34026;-81
2023/06/09 08:34:17;;;;;;;;;;;;;;;22.49;65.78;99557.44;5298503;27;33549;-81
2023/06/09 08:36:44;;;;;;;;;;;;;;;22.52;66.45;99550.94;5296975;27;34072;-81
2023/06/09 08:39:12;;;;;;;;;;;;;;;22.45;66.48;99549.81;5298522;27;33859;-82
2023/06/09 08:41:40;;;;;;;;;;;;;;;22.54;66.48;99564.22;5299106;27;34246;-81
2023/06/09 08:44:08;;;;;;;;;;;;;;;22.54;65.88;99551.63;5313457;27;32014;-81
2023/06/09 08:46:35;;;;;;;;;;;;;;;22.90;65.18;99549.06;5314413;27;33530;-81
2023/06/09 08:49:03;;;;;;;;;;;;;;;23.21;62.39;99553.06;5297115;27;33455;-81
2023/06/09 08:51:31;;;;;;;;;;;;;;;22.88;63.91;99561.78;5298873;27;33838;-81
2023/06/09 08:53:58;;;;;;;;;;;;;;;22.88;64.64;99562.66;5298936;27;32619;-81
2023/06/09 08:56:26;;;;;;;;;;;;;;;22.84;65.50;99563.94;5298046;27;34912;-81
2023/06/09 08:58:54;;;;;;;;;;;;;;;22.83;65.24;99570.28;5295972;27;34608;-81
2023/06/09 09:01:21;;;;;;;;;;;;;;;22.78;65.53;99566.37;5314418;27;33795;-81
2023/06/09 09:03:50;;;;;;;;;;;;;;;22.99;64.93;99567.00;5314745;27;33871;-82
2023/06/09 09:06:17;;;;;;;;;;;;;;;23.13;64.29;99562.94;5298665;27;34443;-82
2023/06/09 09:08:45;;;;;;;;;;;;;;;23.11;64.26;99573.84;5280736;27;33577;-81
2023/06/09 09:11:12;;;;;;;;;;;;;;;22.93;64.45;99570.25;5297310;27;34479;-81
2023/06/09 09:13:42;;;;;;;;;;;;;;;22.90;64.23;99570.59;5295446;27;33244;-82
2023/06/09 09:16:16;;;;;;;;;;;;;;;22.99;64.15;99572.38;5280029;27;35006;-82
2023/06/09 09:18:47;;;;;;;;;;;;;;;23.21;64.07;99569.22;5315620;27;34327;-82
2023/06/09 09:21:22;;;;;;;;;;;;;;;22.97;65.27;99568.97;5277906;27;33627;-81
2023/06/09 09:23:56;;;;;;;;;;;;;;;22.88;66.33;99573.41;5279093;27;32684;-82
2023/06/09 09:26:28;;;;;;;;;;;;;;;22.75;66.56;99573.75;5298678;27;34113;-82
2023/06/09 09:28:56;;;;;;;;;;;;;;;22.86;63.64;99570.00;5297664;27;35076;-82
2023/06/09 09:31:32;;;;;;;;;;;;;;;22.67;64.93;99570.12;5298868;27;35073;-82
2023/06/09 09:34:00;;;;;;;;;;;;;;;22.73;65.20;99574.91;5299110;27;32835;-82
2023/06/09 09:36:27;;;;;;;;;;;;;;;22.54;65.28;99578.53;5316314;27;34637;-82
2023/06/09 09:38:56;;;;;;;;;;;;;;;22.92;63.98;99569.44;5317581;27;33939;-82
2023/06/09 09:41:23;;;;;;;;;;;;;;;22.88;63.44;99583.31;5299264;27;34082;-82
2023/06/09 09:43:54;;;;;;;;;;;;;;;22.29;64.02;99579.22;5298475;27;33720;-82
2023/06/09 09:46:22;;;;;;;;;;;;;;;22.71;63.64;99575.06;5317327;27;34002;-82
2023/06/09 09:48:50;;;;;;;;;;;;;;;22.63;63.70;99574.94;5299081;27;34354;-82
2023/06/09 09:51:20;;;;;;;;;;;;;;;22.76;63.90;99571.91;5317472;27;33779;-82
2023/06/09 09:53:50;;;;;;;;;;;;;;;22.61;63.54;99574.25;5297826;27;34110;-82
2023/06/09 09:56:18;;;;;;;;;;;;;;;22.45;64.58;99582.13;5280763;27;34214;-82
2023/06/09 09:58:47;;;;;;;;;;;;;;;22.56;64.44;99568.47;5280638;27;33447;-82
2023/06/09 10:01:15;;;;;;;;;;;;;;;22.49;64.28;99570.06;5316686;27;33687;-82
2023/06/09 10:03:43;;;;;;;;;;;;;;;22.55;65.02;99569.50;5299019;27;33064;-82
2023/06/09 10:06:13;;;;;;;;;;;;;;;22.20;65.74;99573.72;5280780;27;33078;-82
2023/06/09 10:08:42;;;;;;;;;;;;;;;22.60;63.97;99566.31;5296603;27;33087;-81
2023/06/09 10:11:11;;;;;;;;;;;;;;;22.79;62.99;99563.56;5296913;27;34022;-82
2023/06/09 10:13:38;;;;;;;;;;;;;;;22.79;62.55;99562.66;5295721;27;33899;-82
2023/06/09 10:16:06;;;;;;;;;;;;;;;22.57;63.61;99558.56;5279727;26;32788;-81
2023/06/09 10:18:33;;;;;;;;;;;;;;;22.86;63.01;99556.53;5320152;26;33561;-82
2023/06/09 10:21:03;;;;;;;;;;;;;;;22.48;63.58;99565.69;5302662;26;33194;-82
2023/06/09 10:23:33;;;;;;;;;;;;;;;22.59;63.44;99562.78;5301268;26;32214;-82
2023/06/09 10:26:01;;;;;;;;;;;;;;;22.40;64.31;99554.81;5321215;26;33743;-82
2023/06/09 10:28:28;;;;;;;;;;;;;;;22.53;64.06;99558.00;5301792;26;34299;-81
2023/06/09 10:30:58;;;;;;;;;;;;;;;22.88;64.04;99546.50;5340009;26;33767;-82
2023/06/09 10:33:31;;;;;;;;;;;;;;;22.63;63.84;99550.72;5318892;26;32696;-82
2023/06/09 10:35:59;;;;;;;;;;;;;;;22.58;63.12;99550.34;5318447;26;32973;-82
2023/06/09 10:38:31;;;;;;;;;;;;;;;22.68;62.26;99550.28;5301992;26;34019;-82
2023/06/09 10:41:06;;;;;;;;;;;;;;;22.45;64.33;99547.12;5302755;26;33103;-82
2023/06/09 10:43:52;;;;;;;;;;;;;;;22.53;63.68;99549.09;5320264;26;33222;-82
2023/06/09 10:46:36;;;;;;;;;;;;;;;22.60;64.97;99544.78;5320347;26;34357;-82
2023/06/09 10:49:04;;;;;;;;;;;;;;;22.54;64.69;99543.56;5284347;26;34455;-82
2023/06/09 10:51:32;;;;;;;;;;;;;;;22.92;63.17;99542.50;5302299;26;33792;-83
2023/06/09 10:54:21;;;;;;;;;;;;;;;23.18;58.98;99541.75;5301336;26;32534;-83
2023/06/09 10:56:54;;;;;;;;;;;;;;;22.96;61.36;99540.34;5319601;26;33601;-82
2023/06/09 10:59:25;;;;;;;;;;;;;;;23.46;60.75;99529.06;5282057;26;34282;-82
2023/06/09 11:01:59;;;;;;;;;;;;;;;23.18;59.80;99536.37;5319846;26;34194;-82
2023/06/09 11:04:46;;;;;;;;;;;;;;;22.91;61.89;99529.19;5321009;26;32910;-82
2023/06/09 11:07:14;;;;;;;;;;;;;;;23.31;59.70;99515.28;5320099;26;33986;-83
2023/06/09 11:09:51;;;;;;;;;;;;;;;23.31;59.44;99511.72;5319595;26;33113;-83
2023/06/09 11:12:25;;;;;;;;;;;;;;;23.54;59.75;99509.38;5320427;26;33930;-83
2023/06/09 11:14:55;;;;;;;;;;;;;;;23.45;58.77;99516.56;5320283;26;32913;-83
2023/06/09 11:17:27;;;;;;;;;;;;;;;23.24;59.85;99509.66;5297442;27;32694;-82
2023/06/09 11:20:05;;;;;;;;;;;;;;;23.51;60.41;99510.56;5297666;27;33556;-82
2023/06/09 11:22:34;;;;;;;;;;;;;;;23.90;57.04;99504.78;5313160;27;34103;-82
2023/06/09 11:25:02;;;;;;;;;;;;;;;23.62;58.53;99510.28;5297488;27;33738;-81
2023/06/09 11:27:29;;;;;;;;;;;;;;;23.19;58.74;99511.13;5319082;27;32924;-82
2023/06/09 11:30:07;;;;;;;;;;;;;;;23.39;58.14;99507.25;5317939;27;34029;-82
2023/06/09 11:32:48;;;;;;;;;;;;;;;23.24;58.16;99506.97;5301221;27;33671;-82
2023/06/09 11:35:23;;;;;;;;;;;;;;;23.14;59.00;99510.75;5300610;27;32198;-83
2023/06/09 11:37:51;;;;;;;;;;;;;;;22.97;59.73;99513.28;5319656;27;33908;-83
2023/06/09 11:40:18;;;;;;;;;;;;;;;23.18;58.82;99504.91;5300986;27;34953;-82
2023/06/09 11:42:47;;;;;;;;;;;;;;;23.19;58.09;99506.59;5301276;27;34257;-82
2023/06/09 11:45:15;;;;;;;;;;;;;;;23.44;57.38;99509.47;5319996;27;32991;-82
2023/06/09 11:47:43;;;;;;;;;;;;;;;23.39;57.55;99496.47;5301079;27;33350;-82
2023/06/09 11:50:12;;;;;;;;;;;;;;;23.21;59.08;99499.19;5301693;27;34097;-83
2023/06/09 11:52:43;;;;;;;;;;;;;;;23.27;59.55;99502.28;5301619;27;32807;-83
2023/06/09 11:55:12;;;;;;;;;;;;;;;23.14;60.08;99508.91;5265387;27;32654;-82
2023/06/09 11:57:39;;;;;;;;;;;;;;;23.36;58.28;99507.59;5283891;27;33600;-82
2023/06/09 12:00:12;;;;;;;;;;;;;;;23.57;57.21;99509.09;5265605;27;33132;-83
2023/06/09 12:02:41;;;;;;;;;;;;;;;23.72;57.02;99508.38;5265931;27;32729;-83
2023/06/09 12:05:10;;;;;;;;;;;;;;;23.57;58.52;99507.22;5283355;27;33201;-82
2023/06/09 12:07:38;;;;;;;;;;;;;;;23.50;58.82;99506.19;5284304;27;34329;-82
2023/06/09 12:10:06;;;;;;;;;;;;;;;23.79;58.50;99505.91;5284466;27;33593;-83
2023/06/09 12:12:53;;;;;;;;;;;;;;;24.26;56.42;99505.50;5283579;27;33704;-83
2023/06/09 12:15:22;;;;;;;;;;;;;;;23.81;56.43;99505.75;5283660;27;33317;-82
2023/06/09 12:17:50;;;;;;;;;;;;;;;23.61;56.68;99513.16;5281943;27;34080;-83
2023/06/09 12:20:27;;;;;;;;;;;;;;;23.79;56.77;99502.38;5281031;27;34613;-82
2023/06/09 12:22:55;;;;;;;;;;;;;;;23.91;57.26;99495.69;5262645;27;33729;-82
2023/06/09 12:25:27;;;;;;;;;;;;;;;23.86;58.50;99498.00;5280773;27;33452;-82
2023/06/09 12:27:55;;;;;;;;;;;;;;;24.16;55.90;99494.78;5281488;27;34123;-83
2023/06/09 12:30:33;;;;;;;;;;;;;;;24.20;55.66;99493.47;5263301;27;33308;-82
2023/06/09 12:33:23;;;;;;;;;;;;;;;23.95;56.45;99491.66;5281525;27;34281;-82
2023/06/09 12:35:55;;;;;;;;;;;;;;;23.98;56.15;99485.97;5270256;27;31980;-83
2023/06/09 12:38:23;;;;;;;;;;;;;;;23.74;56.28;99490.22;5262346;27;33364;-82
2023/06/09 12:40:54;;;;;;;;;;;;;;;23.66;58.87;99494.69;5281094;27;34229;-83
2023/06/09 12:43:23;;;;;;;;;;;;;;;23.69;57.51;99491.66;5279952;27;33424;-82
2023/06/09 12:45:54;;;;;;;;;;;;;;;24.02;56.73;99482.78;5299619;27;33346;-83
2023/06/09 12:48:22;;;;;;;;;;;;;;;24.31;55.80;99475.28;5263179;27;32667;-83
2023/06/09 12:50:50;;;;;;;;;;;;;;;24.21;55.45;99475.44;5262603;27;34367;-82
2023/06/09 12:53:18;;;;;;;;;;;;;;;24.53;55.51;99469.34;5280684;27;34166;-83
2023/06/09 12:55:46;;;;;;;;;;;;;;;24.31;55.76;99462.69;5263597;27;32255;-83
2023/06/09 12:58:13;;;;;;;;;;;;;;;24.21;57.06;99464.62;5298135;27;34581;-82
2023/06/09 13:00:41;;;;;;;;;;;;;;;24.63;54.68;99464.62;5281604;27;33948;-82
2023/06/09 13:03:10;;;;;;;;;;;;;;;24.53;54.66;99459.37;5262995;27;32551;-82
2023/06/09 13:05:38;;;;;;;;;;;;;;;24.48;55.34;99466.28;5263202;27;32310;-82
2023/06/09 13:08:05;;;;;;;;;;;;;;;24.30;56.12;99460.97;5262799;27;32852;-82
2023/06/09 13:10:33;;;;;;;;;;;;;;;24.45;55.00;99453.09;5262764;27;33534;-83
2023/06/09 13:13:00;;;;;;;;;;;;;;;24.12;56.03;99450.28;5263078;27;33297;-82
2023/06/09 13:15:28;;;;;;;;;;;;;;;24.37;56.47;99442.31;5299363;27;33187;-83
2023/06/09 13:17:56;;;;;;;;;;;;;;;24.90;54.64;99435.66;5281128;27;33440;-82
2023/06/09 13:20:23;;;;;;;;;;;;;;;24.90;53.58;99439.19;5262250;27;32807;-82
2023/06/09 13:22:51;;;;;;;;;;;;;;;24.96;53.49;99433.12;5298709;27;34185;-82
2023/06/09 13:25:19;;;;;;;;;;;;;;;24.86;54.20;99432.44;5281433;27;33363;-83
2023/06/09 13:27:46;;;;;;;;;;;;;;;25.06;54.06;99432.13;5280769;27;32906;-82
2023/06/09 13:30:14;;;;;;;;;;;;;;;24.96;55.68;99432.28;5261506;27;33113;-82
2023/06/09 13:32:41;;;;;;;;;;;;;;;24.76;55.91;99429.91;5298356;27;34373;-83
2023/06/09 13:35:10;;;;;;;;;;;;;;;24.05;56.71;99433.06;5262986;27;32627;-82
2023/06/09 13:37:38;;;;;;;;;;;;;;;24.51;56.46;99433.59;5281173;27;33963;-82
2023/06/09 13:40:06;;;;;;;;;;;;;;;24.10;57.02;99429.87;5281073;27;34784;-82
2023/06/09 13:42:36;;;;;;;;;;;;;;;24.26;56.34;99429.94;5262453;27;33066;-81
2023/06/09 13:45:03;;;;;;;;;;;;;;;24.10;57.87;99430.72;5262509;27;33145;-82
2023/06/09 13:47:31;;;;;;;;;;;;;;;24.23;54.80;99433.81;5280732;27;34859;-82
2023/06/09 13:49:59;;;;;;;;;;;;;;;24.29;56.05;99437.69;5280100;27;34003;-82
2023/06/09 13:52:26;;;;;;;;;;;;;;;24.12;57.16;99431.41;5262301;27;34157;-82
2023/06/09 13:54:54;;;;;;;;;;;;;;;24.04;57.39;99431.38;5279396;27;33848;-82
2023/06/09 13:57:22;;;;;;;;;;;;;;;24.03;55.48;99429.69;5280141;27;33318;-82
2023/06/09 13:59:49;;;;;;;;;;;;;;;24.07;55.55;99422.97;5262379;27;33756;-82
2023/06/09 14:02:17;;;;;;;;;;;;;;;24.65;53.74;99424.00;5262966;27;33132;-82
2023/06/09 14:04:45;;;;;;;;;;;;;;;24.89;53.38;99423.19;5298651;27;33020;-82
2023/06/09 14:07:12;;;;;;;;;;;;;;;24.54;54.49;99427.84;5280986;27;33994;-82
2023/06/09 14:09:41;;;;;;;;;;;;;;;24.52;55.79;99433.41;5262622;27;33092;-82
2023/06/09 14:12:08;;;;;;;;;;;;;;;24.35;55.39;99438.88;5262475;27;33312;-82
2023/06/09 14:14:37;;;;;;;;;;;;;;;24.30;55.11;99427.75;5281008;27;32790;-82
2023/06/09 14:17:04;;;;;;;;;;;;;;;24.48;55.61;99431.19;5261991;27;33442;-82
2023/06/09 14:19:32;;;;;;;;;;;;;;;24.82;54.02;99430.25;5298939;27;33797;-82
2023/06/09 14:22:04;;;;;;;;;;;;;;;25.18;52.86;99431.66;5281013;27;33966;-82
2023/06/09 14:24:33;;;;;;;;;;;;;;;24.88;53.97;99430.44;5281429;27;33097;-82
2023/06/09 14:27:01;;;;;;;;;;;;;;;24.64;54.78;99428.56;5262719;27;33225;-82
2023/06/09 14:29:29;;;;;;;;;;;;;;;25.12;51.63;99426.94;5262873;27;34133;-83
2023/06/09 14:31:57;;;;;;;;;;;;;;;24.97;54.11;99423.16;5263120;27;33071;-82
2023/06/09 14:34:25;;;;;;;;;;;;;;;25.26;52.85;99426.25;5280932;27;33047;-82
2023/06/09 14:36:52;;;;;;;;;;;;;;;25.52;50.67;99425.19;5262444;27;34722;-82
2023/06/09 14:39:20;;;;;;;;;;;;;;;25.38;51.22;99425.88;5298343;27;33563;-82
2023/06/09 14:41:47;;;;;;;;;;;;;;;25.52;51.86;99417.06;5260085;27;33778;-82
2023/06/09 14:44:16;;;;;;;;;;;;;;;25.62;50.64;99417.72;5297759;27;34080;-82
2023/06/09 14:46:43;;;;;;;;;;;;;;;25.45;50.23;99410.69;5279639;27;34945;-82
2023/06/09 14:49:11;;;;;;;;;;;;;;;24.88;52.34;99418.78;5279404;27;35021;-82
2023/06/09 14:51:39;;;;;;;;;;;;;;;24.87;52.67;99417.06;5262392;27;32962;-83
2023/06/09 14:54:07;;;;;;;;;;;;;;;24.91;52.22;99413.87;5280204;27;33396;-82
2023/06/09 14:56:35;;;;;;;;;;;;;;;24.83;53.02;99410.31;5280546;27;35359;-82
2023/06/09 14:59:04;;;;;;;;;;;;;;;25.01;51.72;99409.16;5280636;27;34365;-82
2023/06/09 15:01:32;;;;;;;;;;;;;;;25.01;52.13;99413.72;5280594;27;33395;-82
2023/06/09 15:04:00;;;;;;;;;;;;;;;25.03;52.80;99406.31;5280028;27;32984;-82
2023/06/09 15:06:27;;;;;;;;;;;;;;;25.15;52.63;99402.25;5280215;27;33482;-82
2023/06/09 15:08:55;;;;;;;;;;;;;;;25.27;52.09;99406.31;5298285;27;34202;-82
2023/06/09 15:11:23;;;;;;;;;;;;;;;25.12;51.03;99402.62;5297843;27;34076;-82